Time;durP1;ratioP1;P1;durP2;ratioP2;P2;SDS_P1;SDS_P2;PMS_P1;PMS_P2;Temp;Humidity;BMP_temperature;BMP_pressure;BME280_temperature;BME280_humidity;BME280_pressure;Samples;Min_cycle;Max_cycle;Signal;HPM_P1;HPM_P2
2021/07/15 00:01:10;;;;;;;26.53;18.20;;;19.10;99.90;;;;;;5024654;28;20627;-57
2021/07/15 00:03:37;;;;;;;29.97;17.23;;;19.10;99.90;;;;;;5020284;28;20207;-57
2021/07/15 00:06:05;;;;;;;27.80;17.13;;;19.10;99.90;;;;;;5023064;28;20893;-57
2021/07/15 00:08:32;;;;;;;31.00;18.03;;;19.10;99.90;;;;;;5021246;28;20307;-57
2021/07/15 00:11:08;;;;;;;30.40;19.23;;;19.10;99.90;;;;;;5013252;28;20683;-57
2021/07/15 00:13:35;;;;;;;29.97;17.60;;;19.10;99.90;;;;;;5022826;28;20288;-57
2021/07/15 00:16:06;;;;;;;28.17;18.40;;;19.10;99.90;;;;;;5027163;28;20207;-57
2021/07/15 00:18:37;;;;;;;28.80;17.33;;;19.10;99.90;;;;;;5024039;28;20226;-57
2021/07/15 00:21:08;;;;;;;27.43;17.80;;;19.10;99.90;;;;;;5026366;28;20251;-57
2021/07/15 00:23:35;;;;;;;24.03;15.87;;;19.10;99.90;;;;;;5021802;28;20291;-57
2021/07/15 00:26:04;;;;;;;27.60;16.80;;;19.00;99.90;;;;;;5021639;28;20204;-57
2021/07/15 00:28:31;;;;;;;28.90;17.87;;;19.00;99.90;;;;;;5024975;28;20232;-57
2021/07/15 00:30:58;;;;;;;24.20;15.27;;;19.00;99.90;;;;;;5021142;28;20271;-57
2021/07/15 00:33:28;;;;;;;25.50;16.67;;;19.10;99.90;;;;;;5020584;28;20243;-57
2021/07/15 00:35:56;;;;;;;26.23;15.50;;;19.10;99.90;;;;;;5024218;28;20714;-56
2021/07/15 00:38:23;;;;;;;22.30;15.10;;;19.00;99.90;;;;;;5023647;28;20674;-57
2021/07/15 00:40:51;;;;;;;24.30;15.27;;;19.00;99.90;;;;;;5023071;28;20219;-57
2021/07/15 00:43:18;;;;;;;21.67;14.27;;;19.00;99.90;;;;;;5020130;28;20303;-57
2021/07/15 00:45:45;;;;;;;23.50;14.70;;;19.00;99.90;;;;;;5019548;28;20207;-57
2021/07/15 00:48:13;;;;;;;24.83;14.17;;;19.00;99.90;;;;;;5019621;28;20204;-57
2021/07/15 00:50:40;;;;;;;24.53;15.53;;;19.00;99.90;;;;;;5027210;28;20657;-57
2021/07/15 00:53:08;;;;;;;20.63;13.40;;;19.00;99.90;;;;;;5022165;28;20638;-57
2021/07/15 00:55:40;;;;;;;18.70;13.27;;;19.00;99.90;;;;;;5026900;28;20311;-57
2021/07/15 00:58:09;;;;;;;21.00;13.27;;;19.00;99.90;;;;;;5025054;28;20198;-57
2021/07/15 01:00:38;;;;;;;18.40;12.40;;;18.90;99.90;;;;;;5024435;28;20943;-57
2021/07/15 01:03:06;;;;;;;18.03;12.23;;;18.90;99.90;;;;;;5026693;28;20667;-57
2021/07/15 01:05:36;;;;;;;22.17;13.23;;;18.90;99.90;;;;;;5022692;28;20305;-57
2021/07/15 01:08:04;;;;;;;18.97;12.90;;;18.90;99.90;;;;;;5025701;28;20904;-57
2021/07/15 01:10:35;;;;;;;20.57;13.67;;;18.90;99.90;;;;;;5026704;28;20477;-56
2021/07/15 01:13:17;;;;;;;21.93;13.37;;;18.90;99.90;;;;;;5028116;28;20218;-57
2021/07/15 01:15:47;;;;;;;18.20;13.20;;;18.90;99.90;;;;;;5031566;28;20219;-57
2021/07/15 01:18:35;;;;;;;20.63;12.90;;;19.00;99.90;;;;;;5025907;28;20671;-57
2021/07/15 01:21:27;;;;;;;21.63;13.23;;;18.90;99.90;;;;;;5025783;28;20230;-57
2021/07/15 01:24:12;;;;;;;19.60;13.97;;;18.90;99.90;;;;;;5029647;28;20226;-57
2021/07/15 01:26:57;;;;;;;22.87;13.17;;;18.90;99.90;;;;;;5034503;28;20280;-56
2021/07/15 01:29:58;;;;;;;19.93;12.83;;;18.90;99.90;;;;;;5026964;28;20296;-56
2021/07/15 01:32:29;;;;;;;21.23;12.90;;;18.80;99.90;;;;;;5026226;28;20622;-56
2021/07/15 01:35:03;;;;;;;20.57;12.83;;;18.90;99.90;;;;;;5028267;28;20205;-56
2021/07/15 01:37:31;;;;;;;23.20;13.70;;;18.90;99.90;;;;;;5023504;28;20512;-58
2021/07/15 01:40:01;;;;;;;24.50;14.07;;;18.90;99.90;;;;;;5028218;28;20573;-58
2021/07/15 01:42:30;;;;;;;21.53;14.53;;;18.80;99.90;;;;;;5030544;28;20241;-58
2021/07/15 01:44:58;;;;;;;25.07;15.80;;;18.80;99.90;;;;;;5027642;28;20202;-58
2021/07/15 01:47:27;;;;;;;23.70;14.47;;;18.80;99.90;;;;;;5028752;28;20579;-58
2021/07/15 01:49:58;;;;;;;27.07;15.93;;;18.80;99.90;;;;;;5027185;28;21804;-58
2021/07/15 01:52:27;;;;;;;25.60;15.50;;;18.80;99.90;;;;;;5025190;28;20213;-58
2021/07/15 01:54:54;;;;;;;28.30;15.17;;;18.80;99.90;;;;;;5021778;28;20202;-58
2021/07/15 01:57:22;;;;;;;22.87;15.87;;;18.70;99.90;;;;;;5027654;28;20781;-58
2021/07/15 01:59:52;;;;;;;26.20;15.60;;;18.80;99.90;;;;;;5025999;28;20305;-58
2021/07/15 02:02:20;;;;;;;27.07;15.63;;;18.80;99.90;;;;;;5027906;28;20233;-58
2021/07/15 02:04:53;;;;;;;24.07;15.87;;;18.70;99.90;;;;;;5025584;28;20243;-58
2021/07/15 02:07:22;;;;;;;23.70;15.73;;;18.70;99.90;;;;;;5023738;28;20289;-58
2021/07/15 02:09:51;;;;;;;29.83;16.90;;;18.70;99.90;;;;;;5026728;28;20202;-58
2021/07/15 02:12:20;;;;;;;25.73;15.27;;;18.70;99.90;;;;;;5028749;28;20258;-58
2021/07/15 02:14:51;;;;;;;29.13;16.03;;;18.80;99.90;;;;;;5033082;28;20675;-57
2021/07/15 02:17:19;;;;;;;28.37;16.67;;;18.70;99.90;;;;;;5031017;28;20252;-58
2021/07/15 02:19:48;;;;;;;24.10;14.73;;;18.80;99.90;;;;;;5025195;28;20208;-58
2021/07/15 02:22:16;;;;;;;27.53;15.27;;;18.70;99.90;;;;;;5025044;28;20226;-58
2021/07/15 02:24:46;;;;;;;23.27;14.40;;;18.70;99.90;;;;;;5028489;28;20204;-58
2021/07/15 02:27:14;;;;;;;27.43;14.67;;;18.70;99.90;;;;;;5029551;28;20215;-58
2021/07/15 02:29:42;;;;;;;22.07;13.77;;;18.70;99.90;;;;;;5023722;28;20647;-58
2021/07/15 02:32:11;;;;;;;22.87;13.23;;;18.70;99.90;;;;;;5030876;28;20229;-58
2021/07/15 02:34:58;;;;;;;20.40;12.70;;;18.70;99.90;;;;;;5027656;28;20220;-58
2021/07/15 02:37:29;;;;;;;19.17;12.13;;;18.70;99.90;;;;;;5044199;28;20622;-58
2021/07/15 02:39:56;;;;;;;22.20;13.47;;;18.60;99.90;;;;;;5030880;28;20337;-58
2021/07/15 02:42:23;;;;;;;20.37;12.20;;;18.60;99.90;;;;;;5025341;28;20318;-58
2021/07/15 02:44:55;;;;;;;19.10;12.17;;;18.60;99.90;;;;;;5028960;28;20300;-57
2021/07/15 02:47:22;;;;;;;19.60;11.80;;;18.60;99.90;;;;;;5029542;28;20292;-58
2021/07/15 02:49:49;;;;;;;20.10;11.27;;;18.60;99.90;;;;;;5027083;28;20211;-58
2021/07/15 02:52:16;;;;;;;18.47;13.00;;;18.50;99.90;;;;;;5028870;28;21025;-58
2021/07/15 02:54:43;;;;;;;22.40;13.57;;;18.50;99.90;;;;;;5027734;28;20311;-58
2021/07/15 02:57:25;;;;;;;22.50;13.40;;;18.60;99.90;;;;;;5026228;28;20207;-58
2021/07/15 03:00:00;;;;;;;23.97;13.47;;;18.60;99.90;;;;;;5024776;28;20320;-58
2021/07/15 03:02:31;;;;;;;21.53;12.80;;;18.70;99.90;;;;;;5023833;28;20309;-58
2021/07/15 03:05:06;;;;;;;22.80;12.60;;;18.50;99.90;;;;;;5023472;28;20352;-58
2021/07/15 03:07:38;;;;;;;23.03;13.43;;;18.60;99.90;;;;;;5023982;28;20338;-58
2021/07/15 03:10:06;;;;;;;23.17;13.97;;;18.50;99.90;;;;;;5022845;28;20612;-58
2021/07/15 03:12:37;;;;;;;29.13;14.43;;;18.40;99.90;;;;;;5027359;28;20678;-59
2021/07/15 03:15:07;;;;;;;24.03;12.83;;;18.40;99.90;;;;;;5025214;28;20303;-58
2021/07/15 03:17:37;;;;;;;25.60;14.17;;;18.50;99.90;;;;;;5021913;28;20211;-58
2021/07/15 03:20:11;;;;;;;26.27;13.83;;;18.40;99.90;;;;;;5027450;28;20295;-58
2021/07/15 03:22:40;;;;;;;22.27;13.37;;;18.50;99.90;;;;;;5024453;28;20301;-57
2021/07/15 03:25:11;;;;;;;22.77;13.20;;;18.40;99.90;;;;;;5026443;28;20299;-58
2021/07/15 03:27:45;;;;;;;22.87;13.23;;;18.40;99.90;;;;;;5024562;28;20642;-58
2021/07/15 03:30:13;;;;;;;22.00;13.30;;;18.40;99.90;;;;;;5027646;28;20215;-58
2021/07/15 03:32:41;;;;;;;19.17;11.80;;;18.40;99.90;;;;;;5028984;28;20232;-58
2021/07/15 03:35:09;;;;;;;19.43;12.17;;;18.40;99.90;;;;;;5025574;28;20832;-58
2021/07/15 03:37:41;;;;;;;26.00;12.70;;;18.40;99.90;;;;;;5020245;28;20528;-58
2021/07/15 03:40:10;;;;;;;18.87;11.50;;;18.40;99.90;;;;;;5028700;28;20260;-58
2021/07/15 03:42:39;;;;;;;22.43;12.07;;;18.50;99.90;;;;;;5004597;28;20619;-58
2021/07/15 03:45:09;;;;;;;18.70;11.27;;;18.50;99.90;;;;;;5023645;28;20562;-58
2021/07/15 03:47:38;;;;;;;17.37;10.63;;;18.50;99.90;;;;;;5021208;28;20201;-58
2021/07/15 03:50:07;;;;;;;14.30;9.13;;;18.50;99.90;;;;;;5028675;28;20274;-58
2021/07/15 03:52:35;;;;;;;11.87;8.07;;;18.50;99.90;;;;;;5025956;28;20223;-58
2021/07/15 03:55:03;;;;;;;11.40;8.63;;;18.50;99.90;;;;;;5023269;28;20204;-58
2021/07/15 03:57:31;;;;;;;16.50;8.50;;;18.50;99.90;;;;;;5018654;28;20262;-58
2021/07/15 03:59:59;;;;;;;12.27;7.57;;;18.40;99.90;;;;;;5025442;28;20203;-58
2021/07/15 04:02:29;;;;;;;12.50;8.13;;;18.40;99.90;;;;;;5021353;28;20219;-58
2021/07/15 04:04:57;;;;;;;14.03;8.03;;;18.40;99.90;;;;;;5023868;28;21883;-58
2021/07/15 04:07:28;;;;;;;11.73;7.30;;;18.40;99.90;;;;;;5028544;28;20213;-58
2021/07/15 04:09:56;;;;;;;13.40;6.87;;;18.40;99.90;;;;;;5023886;28;20197;-58
2021/07/15 04:12:25;;;;;;;12.53;7.93;;;18.40;99.90;;;;;;5029657;28;20258;-58
2021/07/15 04:15:02;;;;;;;12.80;8.27;;;18.30;99.90;;;;;;5027501;28;20200;-58
2021/07/15 04:17:36;;;;;;;12.07;8.27;;;18.30;99.90;;;;;;5020236;28;20270;-59
2021/07/15 04:20:10;;;;;;;13.53;7.50;;;18.30;99.90;;;;;;5024059;28;20214;-58
2021/07/15 04:22:39;;;;;;;9.73;6.87;;;18.30;99.90;;;;;;5016728;28;20277;-57
2021/07/15 04:25:09;;;;;;;11.23;6.83;;;18.40;99.90;;;;;;5027296;28;20614;-58
2021/07/15 04:27:36;;;;;;;9.27;5.77;;;18.50;99.90;;;;;;5021716;28;20208;-58
2021/07/15 04:30:08;;;;;;;9.70;5.97;;;18.40;99.90;;;;;;5025641;28;20269;-58
2021/07/15 04:32:46;;;;;;;7.17;5.07;;;18.50;99.90;;;;;;5027590;28;20672;-58
2021/07/15 04:35:15;;;;;;;8.73;5.13;;;18.40;99.90;;;;;;5026266;28;20626;-58
2021/07/15 04:37:43;;;;;;;13.13;6.00;;;18.40;99.90;;;;;;5026235;28;20845;-58
2021/07/15 04:40:13;;;;;;;8.47;5.77;;;18.40;99.90;;;;;;5025549;28;20334;-58
2021/07/15 04:42:42;;;;;;;11.10;6.27;;;18.40;99.90;;;;;;5029243;28;20312;-58
2021/07/15 04:45:14;;;;;;;11.40;6.60;;;18.30;99.90;;;;;;5030865;28;20851;-58
2021/07/15 04:47:43;;;;;;;12.40;7.10;;;18.40;99.90;;;;;;5016222;28;20291;-58
2021/07/15 04:50:16;;;;;;;12.47;7.57;;;18.30;99.90;;;;;;5022022;28;20298;-58
2021/07/15 04:52:45;;;;;;;10.93;7.37;;;18.40;99.90;;;;;;5023202;28;20372;-58
2021/07/15 04:55:12;;;;;;;10.57;7.90;;;18.40;99.90;;;;;;5024074;28;20301;-58
2021/07/15 04:57:41;;;;;;;9.90;7.77;;;18.40;99.90;;;;;;5025853;28;20312;-58
2021/07/15 05:00:12;;;;;;;14.93;8.33;;;18.40;99.90;;;;;;5032733;28;20406;-58
2021/07/15 05:02:40;;;;;;;12.90;7.83;;;18.50;99.90;;;;;;5027484;28;20293;-58
2021/07/15 05:05:10;;;;;;;11.03;7.47;;;18.40;99.90;;;;;;5030227;28;20366;-58
2021/07/15 05:07:38;;;;;;;11.80;7.80;;;18.50;99.90;;;;;;5034265;28;20202;-58
2021/07/15 05:10:07;;;;;;;13.20;8.37;;;18.50;99.90;;;;;;5036983;28;20851;-58
2021/07/15 05:12:34;;;;;;;10.50;7.03;;;18.40;99.90;;;;;;5034211;28;20202;-58
2021/07/15 05:15:02;;;;;;;11.93;7.43;;;18.50;99.90;;;;;;5029289;28;20638;-58
2021/07/15 05:17:31;;;;;;;8.77;6.33;;;18.40;99.90;;;;;;5029596;28;20782;-58
2021/07/15 05:19:58;;;;;;;8.07;5.73;;;18.30;99.90;;;;;;5027893;28;20306;-58
2021/07/15 05:22:26;;;;;;;9.23;6.40;;;18.40;99.90;;;;;;5024874;28;20272;-58
2021/07/15 05:24:53;;;;;;;7.43;5.17;;;18.50;99.90;;;;;;5028101;28;20226;-58
2021/07/15 05:27:20;;;;;;;9.33;5.20;;;18.40;99.90;;;;;;5030815;28;20290;-58
2021/07/15 05:29:47;;;;;;;7.30;5.03;;;18.50;99.90;;;;;;5030086;28;20307;-58
2021/07/15 05:32:13;;;;;;;7.97;5.93;;;18.40;99.90;;;;;;5028554;28;20340;-58
2021/07/15 05:34:40;;;;;;;10.27;6.33;;;18.40;99.90;;;;;;5026748;28;20213;-58
2021/07/15 05:37:07;;;;;;;8.80;6.30;;;18.40;99.90;;;;;;5031476;28;20289;-58
2021/07/15 05:39:36;;;;;;;9.90;5.77;;;18.50;99.90;;;;;;5019434;28;20263;-58
2021/07/15 05:42:05;;;;;;;10.67;5.97;;;18.50;99.90;;;;;;5027198;28;20870;-58
2021/07/15 05:44:32;;;;;;;8.27;5.93;;;18.50;99.90;;;;;;5030635;28;20997;-58
2021/07/15 05:46:59;;;;;;;8.10;5.93;;;18.50;99.90;;;;;;5028357;28;20198;-58
2021/07/15 05:49:36;;;;;;;7.83;5.57;;;18.40;99.90;;;;;;5027763;28;20206;-58
2021/07/15 05:52:11;;;;;;;9.97;5.53;;;18.50;99.90;;;;;;5025034;28;20293;-58
2021/07/15 05:54:39;;;;;;;7.97;5.33;;;18.50;99.90;;;;;;5026427;28;20199;-58
2021/07/15 05:57:07;;;;;;;8.97;6.10;;;18.50;99.90;;;;;;5030975;28;20279;-58
2021/07/15 05:59:34;;;;;;;12.97;6.40;;;18.50;99.90;;;;;;5032402;28;20239;-58
2021/07/15 06:02:01;;;;;;;8.73;6.07;;;18.50;99.90;;;;;;5024512;28;20704;-58
2021/07/15 06:04:28;;;;;;;11.03;6.20;;;18.50;99.90;;;;;;5032013;28;20590;-58
2021/07/15 06:06:55;;;;;;;9.07;6.30;;;18.50;99.90;;;;;;5033692;28;20645;-58
2021/07/15 06:09:22;;;;;;;11.33;6.63;;;18.60;99.90;;;;;;5028587;28;20276;-58
2021/07/15 06:11:49;;;;;;;10.00;6.13;;;18.60;99.90;;;;;;5030618;28;20296;-58
2021/07/15 06:14:17;;;;;;;8.50;6.03;;;18.50;99.90;;;;;;5024279;28;20218;-58
2021/07/15 06:16:44;;;;;;;8.60;5.67;;;18.50;99.90;;;;;;5012511;28;20358;-58
2021/07/15 06:19:11;;;;;;;9.27;5.63;;;18.50;99.90;;;;;;5028077;28;20207;-58
2021/07/15 06:21:38;;;;;;;10.07;5.40;;;18.50;99.90;;;;;;5043921;28;20293;-57
2021/07/15 06:24:05;;;;;;;7.37;5.07;;;18.40;99.90;;;;;;5024132;28;20231;-58
2021/07/15 06:26:32;;;;;;;6.83;5.33;;;18.40;99.90;;;;;;5028669;28;20223;-58
2021/07/15 06:28:59;;;;;;;7.77;5.33;;;18.40;99.90;;;;;;5030501;28;20225;-51
2021/07/15 06:31:26;;;;;;;7.97;5.33;;;18.40;99.90;;;;;;5028983;28;20226;-52
2021/07/15 06:33:53;;;;;;;9.27;5.13;;;18.40;99.90;;;;;;5030388;28;20682;-52
2021/07/15 06:36:20;;;;;;;8.97;5.50;;;18.40;99.90;;;;;;5026244;28;20293;-51
2021/07/15 06:38:47;;;;;;;7.13;4.87;;;18.50;99.90;;;;;;5028346;28;20210;-51
2021/07/15 06:41:14;;;;;;;7.00;5.73;;;18.40;99.90;;;;;;5030600;28;20235;-51
2021/07/15 06:43:41;;;;;;;6.77;5.40;;;18.40;99.90;;;;;;5023886;28;20788;-52
2021/07/15 06:46:09;;;;;;;10.27;5.60;;;18.40;99.90;;;;;;5024603;28;20258;-52
2021/07/15 06:48:36;;;;;;;7.20;5.67;;;18.30;99.90;;;;;;5031022;28;20205;-51
2021/07/15 06:51:03;;;;;;;8.13;5.87;;;18.30;99.90;;;;;;5037837;28;20307;-52
2021/07/15 06:53:30;;;;;;;11.10;6.30;;;18.20;99.90;;;;;;5029486;28;20548;-51
2021/07/15 06:55:58;;;;;;;14.73;6.67;;;18.30;99.90;;;;;;5030229;28;20243;-51
2021/07/15 06:58:26;;;;;;;10.27;6.67;;;18.30;99.90;;;;;;5026108;28;20620;-51
2021/07/15 07:00:57;;;;;;;13.90;7.27;;;18.30;99.90;;;;;;5030751;28;21628;-51
2021/07/15 07:03:24;;;;;;;10.70;7.67;;;18.30;99.90;;;;;;5029901;28;20215;-51
2021/07/15 07:05:53;;;;;;;11.50;7.93;;;18.30;99.90;;;;;;5030107;28;20280;-51
2021/07/15 07:08:20;;;;;;;12.00;7.70;;;18.20;99.90;;;;;;5029772;28;20293;-52
2021/07/15 07:10:47;;;;;;;12.83;7.33;;;18.10;99.90;;;;;;5032329;28;20232;-52
2021/07/15 07:13:14;;;;;;;11.23;6.83;;;18.20;99.90;;;;;;5031349;28;20303;-51
2021/07/15 07:15:41;;;;;;;12.70;7.73;;;18.20;99.90;;;;;;5027362;28;20201;-51
2021/07/15 07:18:07;;;;;;;14.70;8.30;;;18.20;99.90;;;;;;5016963;28;20596;-52
2021/07/15 07:20:35;;;;;;;12.47;8.60;;;18.20;99.90;;;;;;5024163;28;20252;-52
2021/07/15 07:23:06;;;;;;;14.77;7.00;;;18.10;99.90;;;;;;5026088;28;20803;-52
2021/07/15 07:25:33;;;;;;;12.60;7.50;;;18.10;99.90;;;;;;5033149;28;20213;-52
2021/07/15 07:28:00;;;;;;;10.60;7.03;;;18.10;99.90;;;;;;5024475;28;20622;-51
2021/07/15 07:30:29;;;;;;;12.23;6.47;;;18.00;99.90;;;;;;5024763;28;20891;-52
2021/07/15 07:32:55;;;;;;;9.77;6.33;;;18.10;99.90;;;;;;5029106;28;20337;-51
2021/07/15 07:35:22;;;;;;;10.90;5.60;;;18.10;99.90;;;;;;5026232;28;20205;-51
2021/07/15 07:37:49;;;;;;;8.07;6.07;;;18.00;99.90;;;;;;5026716;28;20208;-51
2021/07/15 07:40:17;;;;;;;10.07;5.83;;;18.00;99.90;;;;;;5024049;28;20257;-51
2021/07/15 07:42:45;;;;;;;8.47;5.40;;;18.10;99.90;;;;;;5024419;28;20303;-51
2021/07/15 07:45:13;;;;;;;6.83;5.20;;;18.00;99.90;;;;;;5022255;28;20731;-52
2021/07/15 07:47:40;;;;;;;7.63;5.57;;;18.00;99.90;;;;;;5020200;28;20226;-51
2021/07/15 07:50:10;;;;;;;6.93;4.77;;;18.00;99.90;;;;;;5024669;28;20219;-51
2021/07/15 07:52:37;;;;;;;8.70;5.73;;;18.00;99.90;;;;;;5031580;28;20312;-51
2021/07/15 07:55:05;;;;;;;9.67;5.90;;;18.00;99.90;;;;;;5032005;28;20618;-51
2021/07/15 07:57:35;;;;;;;10.03;6.17;;;18.10;99.90;;;;;;5039283;28;20382;-51
2021/07/15 08:00:06;;;;;;;13.73;6.57;;;18.10;99.90;;;;;;5020406;28;20195;-51
2021/07/15 08:02:33;;;;;;;12.00;6.07;;;18.10;99.90;;;;;;5033249;28;21120;-52
2021/07/15 08:05:04;;;;;;;8.33;6.03;;;18.20;99.90;;;;;;5034317;28;20367;-52
2021/07/15 08:07:32;;;;;;;8.23;5.93;;;18.10;99.90;;;;;;5032864;28;20207;-51
2021/07/15 08:10:02;;;;;;;11.43;6.67;;;18.10;99.90;;;;;;5033033;28;20661;-52
2021/07/15 08:12:29;;;;;;;9.67;6.07;;;18.10;99.90;;;;;;5031688;28;20273;-51
2021/07/15 08:14:56;;;;;;;9.47;6.00;;;18.20;99.90;;;;;;5033506;28;20283;-51
2021/07/15 08:17:23;;;;;;;8.10;5.67;;;18.10;99.90;;;;;;5034692;28;20250;-51
2021/07/15 08:19:50;;;;;;;7.50;5.20;;;18.20;99.90;;;;;;5037407;28;20199;-51
2021/07/15 08:22:17;;;;;;;9.87;5.93;;;18.20;99.90;;;;;;5031866;28;20688;-51
2021/07/15 08:24:44;;;;;;;9.77;5.73;;;18.20;99.90;;;;;;5031862;28;20216;-52
2021/07/15 08:27:10;;;;;;;10.07;6.20;;;18.20;99.90;;;;;;5027860;28;20750;-51
2021/07/15 08:29:37;;;;;;;12.03;6.27;;;18.20;99.90;;;;;;5035238;28;20739;-51
2021/07/15 08:32:06;;;;;;;11.47;6.30;;;18.20;99.90;;;;;;5033351;28;20318;-51
2021/07/15 08:34:34;;;;;;;11.80;6.73;;;18.20;99.90;;;;;;5025203;28;20700;-51
2021/07/15 08:37:02;;;;;;;9.40;6.90;;;18.10;99.90;;;;;;5030854;28;20337;-51
2021/07/15 08:39:30;;;;;;;8.60;6.93;;;18.20;99.90;;;;;;5032157;28;20250;-51
2021/07/15 08:42:01;;;;;;;14.30;7.70;;;18.10;99.90;;;;;;5031187;28;20301;-51
2021/07/15 08:44:29;;;;;;;14.67;7.63;;;18.00;99.90;;;;;;5028689;28;20419;-51
2021/07/15 08:46:57;;;;;;;15.90;8.73;;;18.00;99.90;;;;;;5033734;28;20266;-51
2021/07/15 08:49:26;;;;;;;19.40;9.27;;;18.00;99.90;;;;;;5030636;28;20351;-51
2021/07/15 08:51:53;;;;;;;19.50;10.17;;;18.00;99.90;;;;;;5027974;28;20316;-51
2021/07/15 08:54:21;;;;;;;14.67;8.97;;;17.90;99.90;;;;;;5030431;28;20219;-51
2021/07/15 08:56:48;;;;;;;19.70;9.57;;;17.90;99.90;;;;;;5041695;28;20673;-51
2021/07/15 08:59:17;;;;;;;16.77;9.03;;;17.90;99.90;;;;;;5035896;28;20213;-51
2021/07/15 09:01:50;;;;;;;16.33;9.50;;;18.00;99.90;;;;;;5035892;28;20207;-52
2021/07/15 09:04:20;;;;;;;18.07;9.07;;;18.00;99.90;;;;;;5035567;28;20259;-51
2021/07/15 09:06:47;;;;;;;20.00;10.50;;;18.00;99.90;;;;;;5033575;28;20344;-51
2021/07/15 09:09:15;;;;;;;18.20;10.37;;;18.00;99.90;;;;;;5037860;28;20289;-51
2021/07/15 09:11:42;;;;;;;18.60;9.70;;;18.00;99.90;;;;;;5010936;28;20283;-51
2021/07/15 09:14:18;;;;;;;18.63;9.77;;;18.10;99.90;;;;;;5030385;28;20655;-52
2021/07/15 09:16:46;;;;;;;17.07;9.33;;;18.00;99.90;;;;;;5033150;28;20553;-51
2021/07/15 09:19:15;;;;;;;20.00;9.97;;;18.10;99.90;;;;;;5032575;28;20204;-52
2021/07/15 09:21:42;;;;;;;14.33;9.37;;;18.00;99.90;;;;;;5036269;28;20209;-51
2021/07/15 09:24:32;;;;;;;21.30;9.57;;;17.90;99.90;;;;;;5031268;28;20695;-51
2021/07/15 09:27:12;;;;;;;22.80;9.33;;;18.00;99.90;;;;;;5032309;28;20250;-51
2021/07/15 09:29:39;;;;;;;19.93;9.10;;;18.00;99.90;;;;;;5031196;28;20301;-51
2021/07/15 09:32:07;;;;;;;14.53;8.73;;;18.10;99.90;;;;;;5030121;28;20229;-51
2021/07/15 09:34:36;;;;;;;14.90;8.17;;;18.10;99.90;;;;;;5027738;28;20559;-51
2021/07/15 09:37:12;;;;;;;19.37;9.10;;;18.10;99.90;;;;;;5035599;28;20964;-51
2021/07/15 09:39:48;;;;;;;11.30;7.87;;;18.10;99.90;;;;;;5029265;28;20242;-51
2021/07/15 09:42:18;;;;;;;11.97;7.60;;;18.10;99.90;;;;;;5036284;28;20255;-52
2021/07/15 09:44:53;;;;;;;13.33;8.03;;;18.10;99.90;;;;;;5033764;28;20685;-51
2021/07/15 09:47:30;;;;;;;13.30;8.27;;;18.20;99.90;;;;;;5038280;28;20259;-51
2021/07/15 09:49:58;;;;;;;12.97;7.33;;;18.20;99.90;;;;;;5036176;28;20624;-51
2021/07/15 09:52:25;;;;;;;16.47;7.83;;;18.10;99.90;;;;;;5035743;28;20313;-51
2021/07/15 09:54:52;;;;;;;16.20;8.10;;;18.10;99.90;;;;;;5029239;28;20696;-51
2021/07/15 09:57:29;;;;;;;13.90;8.00;;;18.00;99.90;;;;;;5039406;28;20297;-51
2021/07/15 09:59:56;;;;;;;11.97;8.13;;;18.10;99.90;;;;;;5031191;28;20290;-57
2021/07/15 10:02:30;;;;;;;16.23;7.63;;;17.90;99.90;;;;;;5035578;28;20684;-58
2021/07/15 10:04:58;;;;;;;11.80;7.80;;;17.90;99.90;;;;;;5037465;28;20243;-51
2021/07/15 10:07:27;;;;;;;13.03;7.33;;;17.90;99.90;;;;;;5031862;28;20254;-51
2021/07/15 10:10:14;;;;;;;16.00;8.63;;;18.00;99.90;;;;;;5034388;28;20266;-51
2021/07/15 10:12:41;;;;;;;12.60;8.07;;;18.00;99.90;;;;;;5032063;28;20204;-51
2021/07/15 10:15:13;;;;;;;13.90;8.20;;;17.90;99.90;;;;;;5036376;28;20724;-51
2021/07/15 10:17:42;;;;;;;13.37;7.27;;;18.00;99.90;;;;;;5032921;28;20305;-51
2021/07/15 10:20:09;;;;;;;13.03;7.73;;;18.00;99.90;;;;;;5035374;28;20222;-51
2021/07/15 10:22:36;;;;;;;15.00;7.90;;;18.10;99.90;;;;;;5030294;28;20612;-52
2021/07/15 10:25:04;;;;;;;11.60;7.53;;;18.00;99.90;;;;;;5032175;28;20436;-51
2021/07/15 10:27:46;;;;;;;12.60;7.40;;;18.10;99.90;;;;;;5024488;28;20465;-51
2021/07/15 10:30:16;;;;;;;11.97;6.80;;;18.10;99.90;;;;;;5031771;28;20299;-52
2021/07/15 10:32:43;;;;;;;13.97;7.13;;;18.10;99.90;;;;;;5034551;28;20342;-52
2021/07/15 10:35:12;;;;;;;12.07;7.00;;;18.00;99.90;;;;;;5036208;28;20195;-51
2021/07/15 10:37:41;;;;;;;10.57;6.27;;;18.10;99.90;;;;;;5032384;28;20638;-51
2021/07/15 10:40:12;;;;;;;8.67;6.33;;;18.00;99.90;;;;;;5035095;28;20796;-52
2021/07/15 10:42:39;;;;;;;8.73;6.60;;;18.10;99.90;;;;;;5032475;28;20305;-51
2021/07/15 10:45:07;;;;;;;8.90;6.47;;;18.10;99.90;;;;;;5036459;28;20250;-51
2021/07/15 10:47:36;;;;;;;11.47;7.03;;;18.20;99.90;;;;;;5030496;28;20201;-51
2021/07/15 10:50:05;;;;;;;10.73;6.57;;;18.10;99.90;;;;;;5034990;28;20286;-51
2021/07/15 10:52:34;;;;;;;12.80;7.37;;;18.00;99.90;;;;;;5029669;28;20240;-51
2021/07/15 10:55:03;;;;;;;9.17;6.97;;;17.90;99.90;;;;;;5028827;28;20316;-52
2021/07/15 10:57:30;;;;;;;13.30;7.67;;;18.00;99.90;;;;;;5034145;28;20317;-52
2021/07/15 11:00:28;;;;;;;12.17;7.60;;;18.00;99.90;;;;;;5033784;28;20264;-51
2021/07/15 11:03:09;;;;;;;12.37;7.13;;;18.00;99.90;;;;;;5035188;28;20208;-52
2021/07/15 11:06:03;;;;;;;13.00;7.40;;;18.00;99.90;;;;;;5032067;28;20304;-51
2021/07/15 11:08:45;;;;;;;11.00;7.07;;;18.10;99.90;;;;;;5034995;28;20739;-52
2021/07/15 11:11:12;;;;;;;9.10;6.73;;;18.10;99.90;;;;;;5037191;28;22515;-52
2021/07/15 11:13:39;;;;;;;14.17;7.37;;;18.00;99.90;;;;;;5040795;28;20210;-51
2021/07/15 11:16:07;;;;;;;11.30;6.93;;;18.10;99.90;;;;;;5030277;28;20637;-51
2021/07/15 11:18:42;;;;;;;12.53;7.43;;;18.00;99.90;;;;;;5027475;28;20264;-52
2021/07/15 11:21:27;;;;;;;11.57;7.13;;;18.00;99.90;;;;;;5035858;28;20339;-52
2021/07/15 11:24:14;;;;;;;13.00;7.93;;;18.10;99.90;;;;;;5028877;28;20286;-51
2021/07/15 11:26:41;;;;;;;11.43;7.63;;;18.00;99.90;;;;;;5030197;28;20746;-51
2021/07/15 11:29:10;;;;;;;13.70;7.87;;;18.10;99.90;;;;;;5036183;28;20301;-52
2021/07/15 11:31:48;;;;;;;12.37;7.23;;;18.10;99.90;;;;;;5033177;28;20799;-51
2021/07/15 11:34:38;;;;;;;11.90;7.63;;;18.10;99.90;;;;;;5039944;28;20229;-51
2021/07/15 11:37:31;;;;;;;15.83;7.80;;;18.10;99.90;;;;;;5034460;28;20610;-51
2021/07/15 11:39:59;;;;;;;12.00;7.60;;;18.20;99.90;;;;;;5030264;28;20419;-51
2021/07/15 11:42:32;;;;;;;17.80;7.43;;;18.20;99.90;;;;;;5031621;28;20687;-51
2021/07/15 11:45:09;;;;;;;10.73;6.97;;;18.30;99.90;;;;;;5031601;28;20268;-52
2021/07/15 11:47:54;;;;;;;8.33;7.30;;;18.20;99.90;;;;;;5030289;28;20300;-52
2021/07/15 11:50:27;;;;;;;13.23;7.20;;;18.40;99.90;;;;;;5032814;28;20195;-51
2021/07/15 11:53:17;;;;;;;11.80;7.30;;;18.40;99.90;;;;;;5028597;28;20532;-51
2021/07/15 11:55:45;;;;;;;11.30;6.70;;;18.40;99.90;;;;;;5029404;28;20310;-51
2021/07/15 11:58:42;;;;;;;10.90;6.67;;;18.50;99.90;;;;;;5034868;28;20220;-51
2021/07/15 12:01:33;;;;;;;9.53;6.97;;;18.40;99.90;;;;;;5038482;28;20212;-51
2021/07/15 12:04:06;;;;;;;9.57;6.37;;;18.50;99.90;;;;;;5040355;28;20237;-51
2021/07/15 12:06:35;;;;;;;9.27;6.30;;;18.50;99.90;;;;;;5033436;28;20276;-51
2021/07/15 12:09:06;;;;;;;11.70;6.37;;;18.40;99.90;;;;;;5036460;28;20303;-52
2021/07/15 12:11:33;;;;;;;11.70;6.70;;;18.50;99.90;;;;;;5036255;28;20261;-52
2021/07/15 12:14:02;;;;;;;9.47;6.33;;;18.50;99.90;;;;;;5038155;28;20244;-52
2021/07/15 12:16:31;;;;;;;12.67;6.50;;;18.50;99.90;;;;;;5031047;28;20209;-51
2021/07/15 12:19:04;;;;;;;7.57;6.23;;;18.50;99.90;;;;;;5042469;28;20292;-51
2021/07/15 12:21:31;;;;;;;12.93;6.90;;;18.50;99.90;;;;;;5032124;28;20205;-52
2021/07/15 12:24:09;;;;;;;9.57;6.43;;;18.50;99.90;;;;;;5031201;28;20578;-51
2021/07/15 12:26:37;;;;;;;9.13;6.13;;;18.60;99.90;;;;;;5037971;28;20280;-52
2021/07/15 12:29:06;;;;;;;9.50;6.97;;;18.70;99.90;;;;;;5034486;28;20325;-52
2021/07/15 12:31:33;;;;;;;10.27;7.47;;;18.60;99.90;;;;;;5032960;28;20366;-49
2021/07/15 12:34:06;;;;;;;12.43;8.23;;;18.60;99.90;;;;;;5029230;28;20616;-50
2021/07/15 12:36:35;;;;;;;10.27;7.87;;;18.40;99.90;;;;;;5035180;28;20386;-49
2021/07/15 12:39:06;;;;;;;11.50;8.30;;;18.40;99.90;;;;;;5040680;28;20238;-52
2021/07/15 12:41:39;;;;;;;13.70;9.20;;;18.50;99.90;;;;;;5034562;28;20240;-53
2021/07/15 12:44:14;;;;;;;14.50;8.53;;;18.40;99.90;;;;;;5038769;28;20228;-52
2021/07/15 12:46:52;;;;;;;15.27;8.80;;;18.50;99.90;;;;;;5040237;28;20206;-51
2021/07/15 12:49:22;;;;;;;12.97;8.67;;;18.60;99.90;;;;;;5035482;28;20205;-52
2021/07/15 12:51:59;;;;;;;15.30;9.40;;;18.50;99.90;;;;;;5038640;28;20200;-52